createdAt,value
2023-02-13T00:01:08.246Z,70.60
2023-02-13T00:03:35.591Z,70.40
2023-02-13T00:06:02.949Z,70.40
2023-02-13T00:08:30.308Z,70.50
2023-02-13T00:10:58.216Z,70.50
2023-02-13T00:13:30.376Z,70.50
2023-02-13T00:16:03.271Z,71.30
2023-02-13T00:18:34.765Z,70.50
2023-02-13T00:21:10.770Z,70.50
2023-02-13T00:23:39.219Z,70.50
2023-02-13T00:26:09.672Z,71.20
2023-02-13T00:28:40.838Z,70.40
2023-02-13T00:31:14.146Z,70.50
2023-02-13T00:33:41.969Z,70.50
2023-02-13T00:36:10.584Z,70.50
2023-02-13T00:38:39.191Z,70.60
2023-02-13T00:41:07.264Z,70.60
2023-02-13T00:43:35.486Z,70.50
2023-02-13T00:46:03.241Z,70.50
2023-02-13T00:48:32.440Z,70.60
2023-02-13T00:51:00.282Z,70.60
2023-02-13T00:53:28.013Z,70.60
2023-02-13T00:55:55.352Z,70.60
2023-02-13T00:58:23.529Z,70.60
2023-02-13T01:00:52.193Z,70.70
2023-02-13T01:03:23.226Z,70.60
2023-02-13T01:05:51.117Z,70.70
2023-02-13T01:08:22.599Z,70.60
2023-02-13T01:10:52.097Z,70.60
2023-02-13T01:13:19.428Z,70.60
2023-02-13T01:15:49.788Z,70.50
2023-02-13T01:18:19.321Z,70.70
2023-02-13T01:20:57.280Z,70.80
2023-02-13T01:23:27.293Z,70.70
2023-02-13T01:25:54.642Z,70.50
2023-02-13T01:28:24.500Z,70.60
2023-02-13T01:30:56.869Z,70.80
2023-02-13T01:33:26.155Z,70.70
2023-02-13T01:35:53.668Z,70.70
2023-02-13T01:38:23.983Z,70.70
2023-02-13T01:40:54.725Z,70.70
2023-02-13T01:43:23.588Z,70.80
2023-02-13T01:45:56.286Z,70.90
2023-02-13T01:48:29.021Z,70.90
2023-02-13T01:51:28.218Z,70.90
2023-02-13T01:54:07.824Z,71.20
2023-02-13T01:56:49.859Z,71.10
2023-02-13T01:59:25.077Z,71.00
2023-02-13T02:01:53.086Z,71.00
2023-02-13T02:04:30.503Z,71.20
2023-02-13T02:07:19.752Z,71.30
2023-02-13T02:09:50.142Z,71.40
2023-02-13T02:12:22.573Z,71.20
2023-02-13T02:14:51.129Z,71.20
2023-02-13T02:17:22.743Z,71.20
2023-02-13T02:19:55.604Z,71.20
2023-02-13T02:23:00.592Z,71.10
2023-02-13T02:25:45.653Z,71.20
2023-02-13T02:28:21.818Z,71.00
2023-02-13T02:31:24.537Z,71.70
2023-02-13T02:34:07.457Z,71.10
2023-02-13T02:36:58.532Z,71.00
2023-02-13T02:40:25.151Z,71.10
2023-02-13T02:43:19.705Z,71.10
2023-02-13T02:45:53.200Z,71.00
2023-02-13T02:48:50.353Z,71.00
2023-02-13T02:51:30.973Z,71.10
2023-02-13T02:54:03.579Z,71.00
2023-02-13T02:56:40.898Z,70.90
2023-02-13T02:59:31.998Z,71.00
2023-02-13T03:02:19.557Z,70.90
2023-02-13T03:05:10.710Z,70.90
2023-02-13T03:07:38.235Z,70.90
2023-02-13T03:10:30.334Z,70.80
2023-02-13T03:13:23.349Z,70.90
2023-02-13T03:16:17.003Z,71.00
2023-02-13T03:19:08.807Z,70.80
2023-02-13T03:22:22.306Z,70.80
2023-02-13T03:25:13.805Z,70.80
2023-02-13T03:28:05.856Z,70.70
2023-02-13T03:30:39.094Z,70.80
2023-02-13T03:33:15.594Z,70.70
2023-02-13T03:36:07.161Z,70.70
2023-02-13T03:39:01.733Z,70.60
2023-02-13T03:41:40.880Z,70.70
2023-02-13T03:45:08.249Z,70.60
2023-02-13T03:47:36.304Z,70.60
2023-02-13T03:50:09.159Z,70.50
2023-02-13T03:52:49.812Z,70.60
2023-02-13T03:55:39.769Z,70.70
2023-02-13T03:58:34.091Z,70.90
2023-02-13T04:01:06.328Z,71.00
2023-02-13T04:04:26.362Z,71.00
2023-02-13T04:06:56.608Z,71.10
2023-02-13T04:09:26.623Z,71.20
2023-02-13T04:12:07.800Z,71.30
2023-02-13T04:14:45.922Z,71.20
2023-02-13T04:17:38.656Z,71.30
2023-02-13T04:20:07.373Z,71.40
2023-02-13T04:22:35.065Z,71.40
2023-02-13T04:25:02.335Z,71.50
2023-02-13T04:27:31.918Z,71.50
2023-02-13T04:30:01.406Z,71.50
2023-02-13T04:32:29.208Z,71.50
2023-02-13T04:34:56.419Z,71.50
2023-02-13T04:37:24.453Z,71.60
2023-02-13T04:39:51.796Z,71.40
2023-02-13T04:42:19.040Z,71.40
2023-02-13T04:44:46.352Z,71.50
2023-02-13T04:47:15.987Z,71.40
2023-02-13T04:49:43.232Z,71.30
2023-02-13T04:52:10.467Z,71.20
2023-02-13T04:54:37.736Z,71.20
2023-02-13T04:57:05.049Z,70.90
2023-02-13T04:59:32.404Z,70.80
2023-02-13T05:01:59.630Z,70.80
2023-02-13T05:04:28.933Z,70.70
2023-02-13T05:06:56.383Z,70.70
2023-02-13T05:09:28.450Z,70.80
2023-02-13T05:12:00.362Z,70.70
2023-02-13T05:14:30.586Z,70.70
2023-02-13T05:16:57.865Z,70.50
2023-02-13T05:19:25.173Z,70.70
2023-02-13T05:22:11.211Z,70.40
2023-02-13T05:24:38.466Z,70.30
2023-02-13T05:27:10.543Z,70.30
2023-02-13T05:29:37.803Z,70.20
2023-02-13T05:32:09.483Z,70.20
2023-02-13T05:34:36.739Z,70.30
2023-02-13T05:37:06.408Z,70.50
2023-02-13T05:39:33.634Z,70.20
2023-02-13T05:42:00.894Z,70.30
2023-02-13T05:44:53.857Z,70.30
2023-02-13T05:47:21.168Z,70.40
2023-02-13T05:49:51.518Z,70.50
2023-02-13T05:52:18.733Z,70.60
2023-02-13T05:54:50.736Z,70.60
2023-02-13T05:57:20.481Z,70.60
2023-02-13T05:59:47.733Z,70.50
2023-02-13T06:02:15.050Z,70.50
2023-02-13T06:04:42.427Z,70.50
2023-02-13T06:07:09.703Z,70.50
2023-02-13T06:09:36.973Z,70.40
2023-02-13T06:12:06.963Z,70.40
2023-02-13T06:14:36.864Z,70.50
2023-02-13T06:17:04.178Z,70.50
2023-02-13T06:19:35.914Z,70.50
2023-02-13T06:22:03.106Z,70.60
2023-02-13T06:24:30.337Z,70.50
2023-02-13T06:26:57.949Z,70.30
2023-02-13T06:29:25.288Z,70.30
2023-02-13T06:31:52.611Z,70.20
2023-02-13T06:34:19.963Z,70.20
2023-02-13T06:36:49.669Z,70.30
2023-02-13T06:39:16.967Z,70.40
2023-02-13T06:41:44.208Z,70.50
2023-02-13T06:44:16.124Z,70.40
2023-02-13T06:46:45.497Z,70.50
2023-02-13T06:49:12.830Z,70.40
2023-02-13T06:51:42.497Z,70.40
2023-02-13T06:54:09.778Z,70.30
2023-02-13T06:56:37.060Z,70.20
2023-02-13T06:59:04.309Z,70.10
2023-02-13T07:01:32.906Z,70.10
2023-02-13T07:04:02.524Z,70.00
2023-02-13T07:06:29.831Z,70.10
2023-02-13T07:08:57.183Z,70.10
2023-02-13T07:11:25.725Z,70.10
2023-02-13T07:13:53.326Z,70.20
2023-02-13T07:16:20.727Z,70.10
2023-02-13T07:18:48.168Z,70.10
2023-02-13T07:21:18.004Z,70.00
2023-02-13T07:23:47.710Z,70.10
2023-02-13T07:26:16.260Z,70.10
2023-02-13T07:28:43.867Z,70.10
2023-02-13T07:31:11.748Z,70.00
2023-02-13T07:33:39.162Z,70.00
2023-02-13T07:36:06.978Z,70.00
2023-02-13T07:38:34.302Z,69.90
2023-02-13T07:41:05.240Z,69.80
2023-02-13T07:43:32.611Z,69.70
2023-02-13T07:46:01.228Z,69.70
2023-02-13T07:48:32.039Z,69.70
2023-02-13T07:51:03.803Z,69.80
2023-02-13T07:53:35.786Z,69.90
2023-02-13T07:56:07.158Z,69.90
2023-02-13T07:58:37.199Z,69.80
2023-02-13T08:01:12.361Z,69.80
2023-02-13T08:03:42.729Z,69.80
2023-02-13T08:06:12.361Z,69.90
2023-02-13T08:08:39.692Z,70.00
2023-02-13T08:11:31.449Z,70.10
2023-02-13T08:13:58.694Z,70.10
2023-02-13T08:16:26.077Z,70.10
2023-02-13T08:18:55.824Z,70.00
2023-02-13T08:21:23.094Z,70.10
2023-02-13T08:23:52.041Z,70.10
2023-02-13T08:26:21.526Z,70.00
2023-02-13T08:28:51.002Z,70.10
2023-02-13T08:31:21.026Z,70.00
2023-02-13T08:33:48.360Z,70.20
2023-02-13T08:36:19.609Z,70.20
2023-02-13T08:38:47.692Z,70.30
2023-02-13T08:43:53.630Z,70.20
2023-02-13T08:46:21.074Z,70.20
2023-02-13T08:48:48.509Z,70.10
2023-02-13T08:51:15.816Z,70.00
2023-02-13T08:53:43.183Z,69.80
2023-02-13T08:56:11.484Z,69.80
2023-02-13T08:58:38.824Z,69.70
2023-02-13T09:01:08.340Z,69.80
2023-02-13T09:03:38.725Z,69.60
2023-02-13T09:06:06.379Z,69.60
2023-02-13T09:08:35.970Z,69.60
2023-02-13T09:11:07.262Z,69.70
2023-02-13T09:13:37.101Z,69.70
2023-02-13T09:16:06.854Z,69.70
2023-02-13T09:18:35.350Z,70.00
2023-02-13T09:21:12.949Z,70.10
2023-02-13T09:23:41.367Z,70.20
2023-02-13T09:26:13.846Z,70.10
2023-02-13T09:28:51.006Z,70.00
2023-02-13T09:31:20.738Z,70.00
2023-02-13T09:33:50.978Z,70.00
2023-02-13T09:36:24.088Z,70.00
2023-02-13T09:38:56.649Z,70.10
2023-02-13T09:41:33.827Z,70.30
2023-02-13T09:44:34.421Z,70.30
2023-02-13T09:47:10.279Z,70.40
2023-02-13T09:49:42.008Z,70.30
2023-02-13T09:52:10.096Z,70.30
2023-02-13T09:54:39.576Z,70.20
2023-02-13T09:57:22.352Z,70.10
2023-02-13T09:59:58.812Z,70.10
2023-02-13T10:02:40.362Z,70.00
2023-02-13T10:05:13.821Z,69.70
2023-02-13T10:07:49.353Z,69.90
2023-02-13T10:10:36.518Z,69.90
2023-02-13T10:13:40.194Z,69.80
2023-02-13T10:16:18.632Z,69.60
2023-02-13T10:18:55.577Z,69.60
2023-02-13T10:21:30.776Z,69.50
2023-02-13T10:24:14.920Z,69.30
2023-02-13T10:26:45.654Z,69.30
2023-02-13T10:29:44.889Z,69.50
2023-02-13T10:32:22.030Z,69.40
2023-02-13T10:34:53.194Z,69.60
2023-02-13T10:37:21.966Z,69.50
2023-02-13T10:39:54.704Z,69.30
2023-02-13T10:42:47.143Z,69.10
2023-02-13T10:45:43.404Z,69.10
2023-02-13T10:48:16.444Z,69.20
2023-02-13T10:50:48.698Z,69.30
2023-02-13T10:53:52.867Z,69.40
2023-02-13T10:56:38.997Z,69.50
2023-02-13T10:59:21.726Z,69.40
2023-02-13T11:02:21.726Z,69.30
2023-02-13T11:04:54.811Z,69.30
2023-02-13T11:07:25.078Z,69.30
2023-02-13T11:10:01.552Z,69.00
2023-02-13T11:12:33.950Z,68.90
2023-02-13T11:15:07.227Z,68.70
2023-02-13T11:17:41.657Z,68.70
2023-02-13T11:20:29.225Z,68.80
2023-02-13T11:23:15.622Z,69.10
2023-02-13T11:26:04.272Z,69.10
2023-02-13T11:28:37.932Z,68.70
2023-02-13T11:31:22.766Z,68.60
2023-02-13T11:33:52.952Z,68.50
2023-02-13T11:36:53.557Z,68.80
2023-02-13T11:39:22.863Z,68.90
2023-02-13T11:41:53.100Z,68.90
2023-02-13T11:44:27.432Z,69.00
2023-02-13T11:46:57.595Z,68.90
2023-02-13T11:49:28.115Z,68.80
2023-02-13T11:51:59.639Z,68.90
2023-02-13T11:54:32.834Z,68.90
2023-02-13T11:57:05.128Z,69.10
2023-02-13T11:59:44.866Z,68.80
2023-02-13T12:02:24.348Z,68.80
2023-02-13T12:04:54.622Z,68.60
2023-02-13T12:07:34.341Z,68.50
2023-02-13T12:10:17.811Z,68.30
2023-02-13T12:12:58.822Z,68.10
2023-02-13T12:15:31.977Z,68.10
2023-02-13T12:18:10.597Z,67.70
2023-02-13T12:21:04.437Z,68.00
2023-02-13T12:24:02.403Z,68.10
2023-02-13T12:26:42.929Z,67.60
2023-02-13T12:29:32.322Z,67.90
2023-02-13T12:32:11.825Z,68.00
2023-02-13T12:35:00.128Z,67.60
2023-02-13T12:37:33.253Z,67.50
2023-02-13T12:40:25.325Z,67.30
2023-02-13T12:42:52.504Z,67.00
2023-02-13T12:45:41.302Z,67.50
2023-02-13T12:48:11.786Z,66.90
2023-02-13T12:51:13.556Z,66.90
2023-02-13T12:54:01.711Z,66.80
2023-02-13T12:56:34.976Z,66.90
2023-02-13T12:59:28.549Z,67.00
2023-02-13T13:02:25.283Z,66.90
2023-02-13T13:05:15.531Z,66.80
2023-02-13T13:07:45.567Z,67.00
2023-02-13T13:10:37.557Z,67.10
2023-02-13T13:13:31.368Z,66.60
2023-02-13T13:16:17.478Z,66.70
2023-02-13T13:19:31.926Z,66.50
2023-02-13T13:22:05.405Z,66.30
2023-02-13T13:24:45.031Z,66.40
2023-02-13T13:27:24.207Z,66.50
2023-02-13T13:30:20.301Z,66.40
2023-02-13T13:32:52.131Z,66.40
2023-02-13T13:35:20.096Z,66.30
2023-02-13T13:38:21.288Z,66.60
2023-02-13T13:41:11.177Z,66.00
2023-02-13T13:44:16.622Z,65.90
2023-02-13T13:46:47.292Z,66.00
2023-02-13T13:49:37.283Z,65.90
2023-02-13T13:52:28.976Z,65.70
2023-02-13T13:55:02.597Z,65.80
2023-02-13T13:57:41.941Z,65.70
2023-02-13T14:00:09.945Z,65.40
2023-02-13T14:02:59.424Z,65.60
2023-02-13T14:05:32.824Z,65.30
2023-02-13T14:08:23.884Z,65.50
2023-02-13T14:10:57.225Z,65.70
2023-02-13T14:13:36.599Z,65.70
2023-02-13T14:16:12.159Z,65.70
2023-02-13T14:18:46.638Z,65.80
2023-02-13T14:21:23.481Z,65.60
2023-02-13T14:23:53.224Z,65.60
2023-02-13T14:26:37.373Z,65.70
2023-02-13T14:29:10.801Z,65.60
2023-02-13T14:31:43.414Z,65.70
2023-02-13T14:34:16.994Z,65.70
2023-02-13T14:37:02.857Z,65.70
2023-02-13T14:39:35.922Z,65.80
2023-02-13T14:42:23.429Z,65.80
2023-02-13T14:44:59.662Z,65.80
2023-02-13T14:47:42.945Z,65.60
2023-02-13T14:50:43.049Z,65.80
2023-02-13T14:53:18.988Z,65.60
2023-02-13T14:55:47.900Z,65.60
2023-02-13T14:58:27.151Z,65.40
2023-02-13T15:01:05.163Z,65.20
2023-02-13T15:03:48.647Z,65.20
2023-02-13T15:06:38.189Z,65.20
2023-02-13T15:09:20.241Z,64.90
2023-02-13T15:11:49.885Z,65.10
2023-02-13T15:14:32.537Z,65.20
2023-02-13T15:17:03.050Z,65.30
2023-02-13T15:19:34.261Z,65.40
2023-02-13T15:22:04.160Z,65.50
2023-02-13T15:24:43.145Z,65.40
2023-02-13T15:27:23.761Z,65.50
2023-02-13T15:30:14.457Z,65.70
2023-02-13T15:32:42.073Z,65.60
2023-02-13T15:35:26.834Z,65.80
2023-02-13T15:37:57.683Z,65.80
2023-02-13T15:40:29.497Z,65.80
2023-02-13T15:43:01.017Z,65.90
2023-02-13T15:45:33.188Z,66.00
2023-02-13T15:48:00.567Z,66.00
2023-02-13T15:50:35.318Z,65.90
2023-02-13T15:53:05.420Z,65.90
2023-02-13T15:55:36.263Z,65.90
2023-02-13T15:58:06.771Z,65.80
2023-02-13T16:00:37.206Z,66.00
2023-02-13T16:03:10.405Z,66.30
2023-02-13T16:05:41.558Z,65.80
2023-02-13T16:08:32.109Z,65.80
2023-02-13T16:11:24.678Z,65.90
2023-02-13T16:14:00.564Z,65.80
2023-02-13T16:16:30.678Z,65.70
2023-02-13T16:18:58.177Z,65.60
2023-02-13T16:21:29.191Z,65.70
2023-02-13T16:24:04.167Z,65.70
2023-02-13T16:26:34.239Z,65.60
2023-02-13T16:29:01.721Z,65.60
2023-02-13T16:31:32.368Z,65.60
2023-02-13T16:33:59.831Z,65.60
2023-02-13T16:36:29.824Z,65.40
2023-02-13T16:38:57.215Z,65.40
2023-02-13T16:41:32.737Z,65.40
2023-02-13T16:44:02.298Z,65.40
2023-02-13T16:46:37.803Z,65.30
2023-02-13T16:49:17.820Z,65.40
2023-02-13T16:51:47.841Z,65.30
2023-02-13T16:54:33.210Z,65.30
2023-02-13T16:57:17.824Z,65.20
2023-02-13T16:59:49.994Z,65.40
2023-02-13T17:02:23.126Z,65.40
2023-02-13T17:05:11.040Z,65.40
2023-02-13T17:07:41.673Z,65.50
2023-02-13T17:10:36.706Z,65.50
2023-02-13T17:13:12.721Z,65.50
2023-02-13T17:15:45.750Z,65.40
2023-02-13T17:18:13.369Z,65.40
2023-02-13T17:20:44.927Z,65.50
2023-02-13T17:23:18.524Z,65.50
2023-02-13T17:25:47.673Z,65.40
2023-02-13T17:28:17.394Z,65.30
2023-02-13T17:30:48.038Z,65.20
2023-02-13T17:33:20.953Z,65.20
2023-02-13T17:35:48.900Z,65.20
2023-02-13T17:38:16.290Z,65.20
2023-02-13T17:40:44.715Z,65.10
2023-02-13T17:43:20.275Z,65.20
2023-02-13T17:45:47.884Z,65.10
2023-02-13T17:48:15.420Z,65.10
2023-02-13T17:50:45.600Z,65.30
2023-02-13T17:53:29.821Z,65.40
2023-02-13T17:55:57.421Z,65.50
2023-02-13T17:58:27.661Z,65.40
2023-02-13T18:00:57.740Z,65.50
2023-02-13T18:03:25.347Z,65.40
2023-02-13T18:05:52.736Z,65.50
2023-02-13T18:08:22.615Z,65.40
2023-02-13T18:10:49.950Z,65.40
2023-02-13T18:13:17.559Z,65.50
2023-02-13T18:15:47.771Z,65.60
2023-02-13T18:18:18.552Z,65.60
2023-02-13T18:20:45.958Z,65.40
2023-02-13T18:23:14.085Z,65.20
2023-02-13T18:25:41.392Z,65.10
2023-02-13T18:28:08.663Z,65.00
2023-02-13T18:30:36.056Z,65.00
2023-02-13T18:33:06.081Z,65.00
2023-02-13T18:35:34.770Z,64.90
2023-02-13T18:38:02.056Z,64.80
2023-02-13T18:40:31.767Z,64.70
2023-02-13T18:42:59.385Z,64.80
2023-02-13T18:45:26.633Z,65.00
2023-02-13T18:47:54.501Z,65.10
2023-02-13T18:50:21.795Z,65.30
2023-02-13T18:52:51.927Z,65.30
2023-02-13T18:55:21.504Z,65.40
2023-02-13T18:57:52.676Z,65.30
2023-02-13T19:00:22.241Z,65.20
2023-02-13T19:02:51.962Z,65.40
2023-02-13T19:05:22.650Z,65.50
2023-02-13T19:07:52.526Z,65.60
2023-02-13T19:10:22.540Z,65.30
2023-02-13T19:12:49.830Z,65.10
2023-02-13T19:15:17.163Z,65.10
2023-02-13T19:17:45.281Z,65.00
2023-02-13T19:20:16.810Z,64.90
2023-02-13T19:22:44.264Z,65.00
2023-02-13T19:25:13.796Z,65.20
2023-02-13T19:27:41.245Z,65.00
2023-02-13T19:30:09.618Z,65.00
2023-02-13T19:32:39.291Z,65.00
2023-02-13T19:35:06.829Z,64.90
2023-02-13T19:37:43.395Z,64.80
2023-02-13T19:40:13.214Z,64.80
2023-02-13T19:42:42.652Z,64.70
2023-02-13T19:45:10.396Z,64.70
2023-02-13T19:47:39.822Z,64.60
2023-02-13T19:50:12.393Z,64.60
2023-02-13T19:52:39.637Z,64.90
2023-02-13T19:55:07.197Z,64.80
2023-02-13T19:57:36.954Z,64.80
2023-02-13T20:00:05.026Z,65.00
2023-02-13T20:02:32.401Z,65.00
2023-02-13T20:05:06.991Z,65.10
2023-02-13T20:07:34.560Z,65.10
2023-02-13T20:10:01.878Z,65.10
2023-02-13T20:12:29.150Z,65.90
2023-02-13T20:14:58.673Z,65.30
2023-02-13T20:17:26.026Z,65.40
2023-02-13T20:19:54.204Z,65.40
2023-02-13T20:22:21.897Z,65.40
2023-02-13T20:24:51.796Z,65.50
2023-02-13T20:27:21.436Z,65.50
2023-02-13T20:29:53.335Z,65.50
2023-02-13T20:32:27.127Z,65.30
2023-02-13T20:34:59.848Z,65.30
2023-02-13T20:37:27.488Z,65.40
2023-02-13T20:39:59.756Z,65.40
2023-02-13T20:42:31.912Z,65.50
2023-02-13T20:45:02.381Z,65.30
2023-02-13T20:47:32.238Z,65.30
2023-02-13T20:50:02.022Z,65.20
2023-02-13T20:52:29.289Z,65.70
2023-02-13T20:54:58.501Z,65.10
2023-02-13T20:57:25.989Z,65.20
2023-02-13T20:59:53.561Z,65.10
2023-02-13T21:02:20.994Z,65.10
2023-02-13T21:04:48.316Z,65.30
2023-02-13T21:07:18.122Z,65.30
2023-02-13T21:09:45.443Z,65.10
2023-02-13T21:12:15.090Z,64.90
2023-02-13T21:14:42.454Z,64.80
2023-02-13T21:17:09.739Z,64.70
2023-02-13T21:19:37.062Z,64.60
2023-02-13T21:22:13.800Z,64.50
2023-02-13T21:24:42.574Z,64.40
2023-02-13T21:27:10.750Z,64.40
2023-02-13T21:29:38.416Z,64.40
2023-02-13T21:32:10.414Z,64.40
2023-02-13T21:34:37.762Z,64.50
2023-02-13T21:37:05.281Z,64.60
2023-02-13T21:39:32.618Z,64.70
2023-02-13T21:42:00.030Z,64.60
2023-02-13T21:44:31.728Z,64.50
2023-02-13T21:46:59.023Z,64.50
2023-02-13T21:49:26.504Z,64.50
2023-02-13T21:51:53.898Z,64.20
2023-02-13T21:54:21.147Z,64.30
2023-02-13T21:56:51.530Z,64.60
2023-02-13T21:59:21.407Z,64.90
2023-02-13T22:01:54.083Z,65.10
2023-02-13T22:04:21.519Z,65.20
2023-02-13T22:06:51.409Z,65.20
2023-02-13T22:09:20.757Z,65.20
2023-02-13T22:11:54.919Z,65.30
2023-02-13T22:14:22.492Z,65.20
2023-02-13T22:16:51.895Z,65.20
2023-02-13T22:19:24.473Z,65.20
2023-02-13T22:21:51.853Z,65.20
2023-02-13T22:24:21.711Z,65.00
2023-02-13T22:26:49.102Z,64.90
2023-02-13T22:29:17.773Z,64.70
2023-02-13T22:31:46.645Z,64.60
2023-02-13T22:34:16.994Z,64.70
2023-02-13T22:36:46.564Z,64.70
2023-02-13T22:39:16.348Z,64.80
2023-02-13T22:41:45.658Z,64.90
2023-02-13T22:44:15.256Z,64.90
2023-02-13T22:46:42.738Z,65.00
2023-02-13T22:49:10.093Z,65.00
2023-02-13T22:51:37.376Z,65.00
2023-02-13T22:54:05.667Z,64.80
2023-02-13T22:56:34.054Z,64.80
2023-02-13T22:59:01.524Z,64.80
2023-02-13T23:01:29.640Z,64.80
2023-02-13T23:03:57.243Z,64.90
2023-02-13T23:06:26.980Z,64.90
2023-02-13T23:08:54.511Z,64.70
2023-02-13T23:11:46.171Z,64.80
2023-02-13T23:14:14.541Z,64.80
2023-02-13T23:17:01.776Z,64.80
2023-02-13T23:19:30.090Z,64.80
2023-02-13T23:22:02.263Z,64.60
2023-02-13T23:24:34.010Z,64.50
2023-02-13T23:27:03.470Z,64.40
2023-02-13T23:33:11.982Z,64.20
2023-02-13T23:35:41.564Z,64.20
2023-02-13T23:38:08.834Z,64.20
2023-02-13T23:40:36.131Z,64.20
2023-02-13T23:43:05.497Z,64.30
2023-02-13T23:45:35.380Z,64.30
2023-02-13T23:48:02.755Z,64.30
2023-02-13T23:50:30.278Z,64.10
2023-02-13T23:53:02.826Z,64.10
2023-02-13T23:55:32.682Z,63.90
2023-02-13T23:58:00.964Z,64.10
